sensor_id;sensor_type;location;lat;lon;timestamp;P1;durP1;ratioP1;P2;durP2;ratioP2
23222;SDS011;11780;13.904;100.620;2023-04-06T02:37:40;46.00;;;36.00;;
23222;SDS011;11780;13.904;100.620;2023-04-06T02:40:10;39.63;;;35.45;;
23222;SDS011;11780;13.904;100.620;2023-04-06T02:42:41;42.58;;;36.17;;
23222;SDS011;11780;13.904;100.620;2023-04-06T02:45:14;41.80;;;36.33;;
23222;SDS011;11780;13.904;100.620;2023-04-06T02:47:46;39.05;;;34.97;;
23222;SDS011;11780;13.904;100.620;2023-04-06T02:50:17;39.83;;;35.83;;
23222;SDS011;11780;13.904;100.620;2023-04-06T02:52:55;39.20;;;35.30;;
23222;SDS011;11780;13.904;100.620;2023-04-06T02:55:26;41.90;;;35.60;;
23222;SDS011;11780;13.904;100.620;2023-04-06T02:57:56;39.60;;;35.77;;
23222;SDS011;11780;13.904;100.620;2023-04-06T03:00:34;39.13;;;35.00;;
23222;SDS011;11780;13.904;100.620;2023-04-06T03:03:05;39.42;;;35.40;;
23222;SDS011;11780;13.904;100.620;2023-04-06T03:05:37;40.22;;;36.15;;
23222;SDS011;11780;13.904;100.620;2023-04-06T03:08:08;39.72;;;35.65;;
23222;SDS011;11780;13.904;100.620;2023-04-06T03:10:43;40.67;;;36.90;;
23222;SDS011;11780;13.904;100.620;2023-04-06T03:13:15;39.88;;;35.88;;
23222;SDS011;11780;13.904;100.620;2023-04-06T03:15:52;40.38;;;36.53;;
23222;SDS011;11780;13.904;100.620;2023-04-06T03:18:24;40.83;;;36.85;;
23222;SDS011;11780;13.904;100.620;2023-04-06T03:20:56;41.10;;;36.97;;
23222;SDS011;11780;13.904;100.620;2023-04-06T03:23:45;42.42;;;38.05;;
23222;SDS011;11780;13.904;100.620;2023-04-06T03:26:15;43.60;;;39.23;;
23222;SDS011;11780;13.904;100.620;2023-04-06T03:28:45;41.53;;;37.53;;
23222;SDS011;11780;13.904;100.620;2023-04-06T03:31:18;42.88;;;38.58;;
23222;SDS011;11780;13.904;100.620;2023-04-06T03:33:57;43.17;;;38.63;;
23222;SDS011;11780;13.904;100.620;2023-04-06T03:36:34;42.10;;;37.90;;
23222;SDS011;11780;13.904;100.620;2023-04-06T03:39:05;41.47;;;37.55;;
23222;SDS011;11780;13.904;100.620;2023-04-06T03:41:39;43.40;;;38.63;;
23222;SDS011;11780;13.904;100.620;2023-04-06T03:44:27;42.58;;;38.38;;
23222;SDS011;11780;13.904;100.620;2023-04-06T03:46:58;43.63;;;39.00;;
23222;SDS011;11780;13.904;100.620;2023-04-06T03:49:29;42.15;;;38.08;;
23222;SDS011;11780;13.904;100.620;2023-04-06T03:52:00;42.25;;;37.95;;
23222;SDS011;11780;13.904;100.620;2023-04-06T03:54:31;43.10;;;38.85;;
23222;SDS011;11780;13.904;100.620;2023-04-06T03:57:01;41.28;;;37.17;;
23222;SDS011;11780;13.904;100.620;2023-04-06T03:59:32;43.83;;;39.63;;
23222;SDS011;11780;13.904;100.620;2023-04-06T04:02:03;43.28;;;39.13;;
23222;SDS011;11780;13.904;100.620;2023-04-06T04:04:34;44.03;;;39.63;;
23222;SDS011;11780;13.904;100.620;2023-04-06T04:07:05;41.13;;;37.13;;
23222;SDS011;11780;13.904;100.620;2023-04-06T04:09:36;43.97;;;39.50;;
23222;SDS011;11780;13.904;100.620;2023-04-06T04:12:06;42.05;;;38.05;;
23222;SDS011;11780;13.904;100.620;2023-04-06T04:14:37;42.27;;;38.03;;
23222;SDS011;11780;13.904;100.620;2023-04-06T04:17:07;40.08;;;36.13;;
23222;SDS011;11780;13.904;100.620;2023-04-06T04:19:38;42.27;;;38.27;;
23222;SDS011;11780;13.904;100.620;2023-04-06T04:22:08;42.67;;;38.28;;
23222;SDS011;11780;13.904;100.620;2023-04-06T04:24:40;42.33;;;37.92;;
23222;SDS011;11780;13.904;100.620;2023-04-06T04:27:10;44.83;;;39.97;;
23222;SDS011;11780;13.904;100.620;2023-04-06T04:29:41;46.80;;;42.20;;
23222;SDS011;11780;13.904;100.620;2023-04-06T04:32:13;45.35;;;40.75;;
23222;SDS011;11780;13.904;100.620;2023-04-06T04:34:45;45.17;;;40.78;;
23222;SDS011;11780;13.904;100.620;2023-04-06T04:37:29;44.85;;;40.25;;
23222;SDS011;11780;13.904;100.620;2023-04-06T04:40:00;43.53;;;38.90;;
23222;SDS011;11780;13.904;100.620;2023-04-06T04:42:40;45.35;;;40.53;;
23222;SDS011;11780;13.904;100.620;2023-04-06T04:45:17;46.55;;;40.45;;
23222;SDS011;11780;13.904;100.620;2023-04-06T04:47:48;46.55;;;40.80;;
23222;SDS011;11780;13.904;100.620;2023-04-06T04:50:22;47.15;;;42.33;;
23222;SDS011;11780;13.904;100.620;2023-04-06T04:52:56;44.83;;;40.45;;
23222;SDS011;11780;13.904;100.620;2023-04-06T04:55:27;44.97;;;40.07;;
23222;SDS011;11780;13.904;100.620;2023-04-06T04:57:59;43.13;;;38.95;;
23222;SDS011;11780;13.904;100.620;2023-04-06T05:00:44;45.97;;;40.88;;
23222;SDS011;11780;13.904;100.620;2023-04-06T05:06:01;46.13;;;41.42;;
23222;SDS011;11780;13.904;100.620;2023-04-06T05:08:35;48.00;;;43.13;;
23222;SDS011;11780;13.904;100.620;2023-04-06T05:11:05;44.40;;;40.10;;
23222;SDS011;11780;13.904;100.620;2023-04-06T05:13:41;47.20;;;42.47;;
23222;SDS011;11780;13.904;100.620;2023-04-06T05:16:16;48.05;;;43.08;;
23222;SDS011;11780;13.904;100.620;2023-04-06T05:18:47;45.15;;;40.63;;
23222;SDS011;11780;13.904;100.620;2023-04-06T05:21:18;46.75;;;41.92;;
23222;SDS011;11780;13.904;100.620;2023-04-06T05:24:05;49.60;;;43.45;;
23222;SDS011;11780;13.904;100.620;2023-04-06T05:26:40;50.95;;;45.88;;
23222;SDS011;11780;13.904;100.620;2023-04-06T05:29:18;46.78;;;41.85;;
23222;SDS011;11780;13.904;100.620;2023-04-06T05:31:50;46.03;;;41.78;;
23222;SDS011;11780;13.904;100.620;2023-04-06T05:34:21;43.88;;;39.40;;
23222;SDS011;11780;13.904;100.620;2023-04-06T05:36:53;43.80;;;39.25;;
23222;SDS011;11780;13.904;100.620;2023-04-06T05:39:24;44.88;;;39.85;;
23222;SDS011;11780;13.904;100.620;2023-04-06T05:41:55;45.75;;;41.03;;
23222;SDS011;11780;13.904;100.620;2023-04-06T05:44:46;46.50;;;41.50;;
23222;SDS011;11780;13.904;100.620;2023-04-06T05:47:17;46.53;;;41.83;;
23222;SDS011;11780;13.904;100.620;2023-04-06T05:49:54;47.08;;;42.45;;
23222;SDS011;11780;13.904;100.620;2023-04-06T05:52:34;50.35;;;45.13;;
23222;SDS011;11780;13.904;100.620;2023-04-06T05:55:05;43.23;;;38.50;;
23222;SDS011;11780;13.904;100.620;2023-04-06T05:57:39;46.45;;;41.58;;
23222;SDS011;11780;13.904;100.620;2023-04-06T06:00:11;48.95;;;44.25;;
23222;SDS011;11780;13.904;100.620;2023-04-06T06:02:52;47.38;;;42.75;;
23222;SDS011;11780;13.904;100.620;2023-04-06T06:05:27;47.30;;;42.50;;
23222;SDS011;11780;13.904;100.620;2023-04-06T06:08:05;48.70;;;43.85;;
23222;SDS011;11780;13.904;100.620;2023-04-06T06:10:37;50.45;;;45.45;;
23222;SDS011;11780;13.904;100.620;2023-04-06T06:13:11;47.38;;;42.63;;
23222;SDS011;11780;13.904;100.620;2023-04-06T06:15:42;49.35;;;44.00;;
23222;SDS011;11780;13.904;100.620;2023-04-06T06:18:12;47.45;;;42.78;;
23222;SDS011;11780;13.904;100.620;2023-04-06T06:20:43;44.83;;;39.97;;
23222;SDS011;11780;13.904;100.620;2023-04-06T06:23:14;46.03;;;41.33;;
23222;SDS011;11780;13.904;100.620;2023-04-06T06:25:45;48.78;;;44.13;;
23222;SDS011;11780;13.904;100.620;2023-04-06T06:28:16;48.50;;;43.60;;
23222;SDS011;11780;13.904;100.620;2023-04-06T06:30:46;47.90;;;43.30;;
23222;SDS011;11780;13.904;100.620;2023-04-06T06:33:21;46.67;;;41.97;;
23222;SDS011;11780;13.904;100.620;2023-04-06T06:35:53;49.17;;;44.35;;
23222;SDS011;11780;13.904;100.620;2023-04-06T06:38:24;49.15;;;44.05;;
23222;SDS011;11780;13.904;100.620;2023-04-06T06:40:55;44.53;;;39.95;;
23222;SDS011;11780;13.904;100.620;2023-04-06T06:43:29;50.05;;;44.85;;
23222;SDS011;11780;13.904;100.620;2023-04-06T06:46:05;49.38;;;44.58;;
23222;SDS011;11780;13.904;100.620;2023-04-06T06:48:36;49.53;;;44.80;;
23222;SDS011;11780;13.904;100.620;2023-04-06T06:51:07;49.50;;;44.30;;
23222;SDS011;11780;13.904;100.620;2023-04-06T06:53:40;48.45;;;43.75;;
23222;SDS011;11780;13.904;100.620;2023-04-06T06:56:13;49.42;;;44.45;;
23222;SDS011;11780;13.904;100.620;2023-04-06T06:58:44;43.85;;;39.25;;
23222;SDS011;11780;13.904;100.620;2023-04-06T07:01:14;49.13;;;44.23;;
23222;SDS011;11780;13.904;100.620;2023-04-06T07:03:45;51.55;;;46.53;;
23222;SDS011;11780;13.904;100.620;2023-04-06T07:06:15;51.88;;;46.58;;
23222;SDS011;11780;13.904;100.620;2023-04-06T07:08:46;52.70;;;47.33;;
23222;SDS011;11780;13.904;100.620;2023-04-06T07:11:16;47.50;;;42.93;;
23222;SDS011;11780;13.904;100.620;2023-04-06T07:13:46;49.57;;;44.90;;
23222;SDS011;11780;13.904;100.620;2023-04-06T07:16:17;50.63;;;45.70;;
23222;SDS011;11780;13.904;100.620;2023-04-06T07:18:47;46.87;;;42.57;;
23222;SDS011;11780;13.904;100.620;2023-04-06T07:21:18;46.05;;;41.17;;
23222;SDS011;11780;13.904;100.620;2023-04-06T07:23:49;48.92;;;44.17;;
23222;SDS011;11780;13.904;100.620;2023-04-06T07:26:20;48.63;;;43.83;;
23222;SDS011;11780;13.904;100.620;2023-04-06T07:28:50;48.50;;;43.43;;
23222;SDS011;11780;13.904;100.620;2023-04-06T07:31:22;50.90;;;45.95;;
23222;SDS011;11780;13.904;100.620;2023-04-06T07:33:53;49.15;;;44.42;;
23222;SDS011;11780;13.904;100.620;2023-04-06T07:36:24;54.50;;;48.03;;
23222;SDS011;11780;13.904;100.620;2023-04-06T07:38:54;52.33;;;46.90;;
23222;SDS011;11780;13.904;100.620;2023-04-06T07:41:25;53.50;;;43.83;;
23222;SDS011;11780;13.904;100.620;2023-04-06T07:43:55;47.03;;;42.50;;
23222;SDS011;11780;13.904;100.620;2023-04-06T07:46:25;44.70;;;39.88;;
23222;SDS011;11780;13.904;100.620;2023-04-06T07:48:56;48.22;;;43.35;;
23222;SDS011;11780;13.904;100.620;2023-04-06T07:51:30;50.38;;;45.47;;
23222;SDS011;11780;13.904;100.620;2023-04-06T07:54:00;50.13;;;44.90;;
23222;SDS011;11780;13.904;100.620;2023-04-06T07:56:31;48.42;;;43.53;;
23222;SDS011;11780;13.904;100.620;2023-04-06T07:59:02;45.83;;;41.40;;
23222;SDS011;11780;13.904;100.620;2023-04-06T08:01:32;45.22;;;40.92;;
23222;SDS011;11780;13.904;100.620;2023-04-06T08:04:03;45.33;;;40.93;;
23222;SDS011;11780;13.904;100.620;2023-04-06T08:09:06;45.70;;;41.20;;
23222;SDS011;11780;13.904;100.620;2023-04-06T08:11:36;44.83;;;40.40;;
23222;SDS011;11780;13.904;100.620;2023-04-06T08:14:08;45.95;;;40.90;;
23222;SDS011;11780;13.904;100.620;2023-04-06T08:16:38;41.47;;;37.47;;
23222;SDS011;11780;13.904;100.620;2023-04-06T08:19:12;44.80;;;40.40;;
23222;SDS011;11780;13.904;100.620;2023-04-06T08:24:13;47.70;;;40.83;;
23222;SDS011;11780;13.904;100.620;2023-04-06T08:26:45;44.20;;;39.92;;
23222;SDS011;11780;13.904;100.620;2023-04-06T08:29:15;46.45;;;41.85;;
23222;SDS011;11780;13.904;100.620;2023-04-06T08:31:46;45.92;;;41.05;;
23222;SDS011;11780;13.904;100.620;2023-04-06T08:34:17;44.40;;;39.88;;
23222;SDS011;11780;13.904;100.620;2023-04-06T08:36:47;43.40;;;39.13;;
23222;SDS011;11780;13.904;100.620;2023-04-06T08:39:21;46.50;;;41.70;;
23222;SDS011;11780;13.904;100.620;2023-04-06T08:41:54;44.42;;;40.10;;
23222;SDS011;11780;13.904;100.620;2023-04-06T08:44:31;43.40;;;39.30;;
23222;SDS011;11780;13.904;100.620;2023-04-06T08:47:02;45.63;;;40.92;;
23222;SDS011;11780;13.904;100.620;2023-04-06T08:49:36;44.33;;;39.85;;
23222;SDS011;11780;13.904;100.620;2023-04-06T08:52:08;44.50;;;40.00;;
23222;SDS011;11780;13.904;100.620;2023-04-06T08:54:41;42.80;;;38.70;;
23222;SDS011;11780;13.904;100.620;2023-04-06T08:57:12;44.33;;;40.30;;
23222;SDS011;11780;13.904;100.620;2023-04-06T08:59:44;43.67;;;39.30;;
23222;SDS011;11780;13.904;100.620;2023-04-06T09:02:17;42.85;;;38.85;;
23222;SDS011;11780;13.904;100.620;2023-04-06T09:04:52;42.70;;;38.50;;
23222;SDS011;11780;13.904;100.620;2023-04-06T09:07:24;42.30;;;38.33;;
23222;SDS011;11780;13.904;100.620;2023-04-06T09:09:54;40.65;;;36.80;;
23222;SDS011;11780;13.904;100.620;2023-04-06T09:12:25;41.47;;;37.63;;
23222;SDS011;11780;13.904;100.620;2023-04-06T09:14:58;42.78;;;38.63;;
23222;SDS011;11780;13.904;100.620;2023-04-06T09:17:32;40.25;;;36.08;;
23222;SDS011;11780;13.904;100.620;2023-04-06T09:20:03;43.80;;;39.25;;
23222;SDS011;11780;13.904;100.620;2023-04-06T09:22:37;43.90;;;39.80;;
23222;SDS011;11780;13.904;100.620;2023-04-06T09:25:09;42.58;;;38.58;;
23222;SDS011;11780;13.904;100.620;2023-04-06T09:27:47;39.78;;;35.53;;
23222;SDS011;11780;13.904;100.620;2023-04-06T09:30:28;39.73;;;35.60;;
23222;SDS011;11780;13.904;100.620;2023-04-06T09:32:58;41.20;;;37.00;;
23222;SDS011;11780;13.904;100.620;2023-04-06T09:35:29;39.72;;;35.88;;
23222;SDS011;11780;13.904;100.620;2023-04-06T09:38:10;41.30;;;37.42;;
23222;SDS011;11780;13.904;100.620;2023-04-06T09:40:48;42.63;;;38.42;;
23222;SDS011;11780;13.904;100.620;2023-04-06T09:43:28;42.97;;;38.35;;
23222;SDS011;11780;13.904;100.620;2023-04-06T09:46:00;44.15;;;39.35;;
23222;SDS011;11780;13.904;100.620;2023-04-06T09:48:33;42.22;;;37.80;;
23222;SDS011;11780;13.904;100.620;2023-04-06T09:51:05;43.63;;;39.10;;
23222;SDS011;11780;13.904;100.620;2023-04-06T09:53:39;43.35;;;37.10;;
23222;SDS011;11780;13.904;100.620;2023-04-06T09:56:16;40.80;;;37.03;;
23222;SDS011;11780;13.904;100.620;2023-04-06T09:58:50;41.72;;;37.55;;
23222;SDS011;11780;13.904;100.620;2023-04-06T10:01:28;40.63;;;36.47;;
23222;SDS011;11780;13.904;100.620;2023-04-06T10:04:05;40.08;;;36.28;;
23222;SDS011;11780;13.904;100.620;2023-04-06T10:09:14;42.58;;;37.03;;
23222;SDS011;11780;13.904;100.620;2023-04-06T10:11:47;40.53;;;36.33;;
23222;SDS011;11780;13.904;100.620;2023-04-06T10:14:20;40.17;;;35.85;;
23222;SDS011;11780;13.904;100.620;2023-04-06T10:16:50;40.78;;;36.47;;
23222;SDS011;11780;13.904;100.620;2023-04-06T10:19:26;39.63;;;35.65;;
23222;SDS011;11780;13.904;100.620;2023-04-06T10:22:03;39.80;;;35.92;;
23222;SDS011;11780;13.904;100.620;2023-04-06T10:24:35;39.33;;;35.35;;
23222;SDS011;11780;13.904;100.620;2023-04-06T10:27:06;42.63;;;37.93;;
23222;SDS011;11780;13.904;100.620;2023-04-06T10:32:14;40.80;;;36.78;;
23222;SDS011;11780;13.904;100.620;2023-04-06T10:34:48;41.03;;;36.97;;
23222;SDS011;11780;13.904;100.620;2023-04-06T10:37:18;38.60;;;34.60;;
23222;SDS011;11780;13.904;100.620;2023-04-06T10:39:52;37.67;;;33.60;;
23222;SDS011;11780;13.904;100.620;2023-04-06T10:42:37;38.20;;;32.50;;
23222;SDS011;11780;13.904;100.620;2023-04-06T10:45:18;47.20;;;35.47;;
23222;SDS011;11780;13.904;100.620;2023-04-06T10:47:52;38.88;;;34.47;;
23222;SDS011;11780;13.904;100.620;2023-04-06T10:50:23;40.08;;;35.75;;
23222;SDS011;11780;13.904;100.620;2023-04-06T10:53:01;37.72;;;34.03;;
23222;SDS011;11780;13.904;100.620;2023-04-06T10:55:33;38.33;;;34.53;;
23222;SDS011;11780;13.904;100.620;2023-04-06T10:58:07;39.83;;;35.80;;
23222;SDS011;11780;13.904;100.620;2023-04-06T11:00:43;37.75;;;34.03;;
23222;SDS011;11780;13.904;100.620;2023-04-06T11:03:17;37.08;;;33.47;;
23222;SDS011;11780;13.904;100.620;2023-04-06T11:05:49;36.15;;;32.35;;
23222;SDS011;11780;13.904;100.620;2023-04-06T11:08:28;38.70;;;34.80;;
23222;SDS011;11780;13.904;100.620;2023-04-06T11:11:06;37.33;;;33.40;;
23222;SDS011;11780;13.904;100.620;2023-04-06T11:13:52;36.63;;;32.63;;
23222;SDS011;11780;13.904;100.620;2023-04-06T11:16:31;37.22;;;33.15;;
23222;SDS011;11780;13.904;100.620;2023-04-06T11:19:03;40.25;;;35.95;;
23222;SDS011;11780;13.904;100.620;2023-04-06T11:21:39;39.08;;;34.95;;
23222;SDS011;11780;13.904;100.620;2023-04-06T11:24:20;38.95;;;33.85;;
23222;SDS011;11780;13.904;100.620;2023-04-06T11:26:57;40.00;;;34.05;;
23222;SDS011;11780;13.904;100.620;2023-04-06T11:29:30;37.30;;;33.40;;
23222;SDS011;11780;13.904;100.620;2023-04-06T11:34:36;47.05;;;40.13;;
23222;SDS011;11780;13.904;100.620;2023-04-06T11:37:08;70.30;;;59.83;;
23222;SDS011;11780;13.904;100.620;2023-04-06T11:39:49;76.50;;;64.22;;
23222;SDS011;11780;13.904;100.620;2023-04-06T11:42:24;65.78;;;54.60;;
23222;SDS011;11780;13.904;100.620;2023-04-06T11:44:59;54.08;;;48.28;;
23222;SDS011;11780;13.904;100.620;2023-04-06T11:47:33;55.17;;;43.83;;
23222;SDS011;11780;13.904;100.620;2023-04-06T11:50:12;46.03;;;41.15;;
23222;SDS011;11780;13.904;100.620;2023-04-06T11:52:43;43.95;;;39.13;;
23222;SDS011;11780;13.904;100.620;2023-04-06T11:55:17;45.97;;;39.57;;
23222;SDS011;11780;13.904;100.620;2023-04-06T11:57:48;44.70;;;40.25;;
23222;SDS011;11780;13.904;100.620;2023-04-06T12:00:21;45.67;;;41.03;;
23222;SDS011;11780;13.904;100.620;2023-04-06T12:02:51;45.22;;;40.50;;
23222;SDS011;11780;13.904;100.620;2023-04-06T12:05:22;45.77;;;40.93;;
23222;SDS011;11780;13.904;100.620;2023-04-06T12:07:53;44.75;;;40.45;;
23222;SDS011;11780;13.904;100.620;2023-04-06T12:10:27;49.15;;;42.72;;
23222;SDS011;11780;13.904;100.620;2023-04-06T12:12:57;46.90;;;42.10;;
23222;SDS011;11780;13.904;100.620;2023-04-06T12:15:27;48.38;;;43.47;;
23222;SDS011;11780;13.904;100.620;2023-04-06T12:17:57;52.40;;;41.67;;
23222;SDS011;11780;13.904;100.620;2023-04-06T12:20:29;46.88;;;41.88;;
23222;SDS011;11780;13.904;100.620;2023-04-06T12:22:59;48.53;;;42.47;;
23222;SDS011;11780;13.904;100.620;2023-04-06T12:25:30;48.50;;;43.17;;
23222;SDS011;11780;13.904;100.620;2023-04-06T12:28:01;47.97;;;43.20;;
23222;SDS011;11780;13.904;100.620;2023-04-06T12:30:31;44.65;;;39.83;;
23222;SDS011;11780;13.904;100.620;2023-04-06T12:33:01;46.37;;;41.33;;
23222;SDS011;11780;13.904;100.620;2023-04-06T12:35:36;45.30;;;40.77;;
23222;SDS011;11780;13.904;100.620;2023-04-06T12:38:08;56.47;;;49.97;;
23222;SDS011;11780;13.904;100.620;2023-04-06T12:40:38;48.17;;;43.17;;
23222;SDS011;11780;13.904;100.620;2023-04-06T12:43:09;50.20;;;44.80;;
23222;SDS011;11780;13.904;100.620;2023-04-06T12:48:11;42.70;;;38.28;;
23222;SDS011;11780;13.904;100.620;2023-04-06T12:50:41;46.40;;;41.80;;
23222;SDS011;11780;13.904;100.620;2023-04-06T12:53:12;46.45;;;41.63;;
23222;SDS011;11780;13.904;100.620;2023-04-06T12:55:42;44.00;;;39.60;;
23222;SDS011;11780;13.904;100.620;2023-04-06T12:58:12;46.08;;;40.58;;
23222;SDS011;11780;13.904;100.620;2023-04-06T13:00:43;42.97;;;38.73;;
23222;SDS011;11780;13.904;100.620;2023-04-06T13:03:13;44.45;;;39.70;;
23222;SDS011;11780;13.904;100.620;2023-04-06T13:05:45;46.25;;;41.63;;
23222;SDS011;11780;13.904;100.620;2023-04-06T13:08:17;44.20;;;39.80;;
23222;SDS011;11780;13.904;100.620;2023-04-06T13:10:50;45.47;;;40.88;;
23222;SDS011;11780;13.904;100.620;2023-04-06T13:13:25;45.50;;;40.75;;
23222;SDS011;11780;13.904;100.620;2023-04-06T13:16:03;43.72;;;39.25;;
23222;SDS011;11780;13.904;100.620;2023-04-06T13:18:36;41.65;;;37.72;;
23222;SDS011;11780;13.904;100.620;2023-04-06T13:21:08;44.67;;;40.15;;
23222;SDS011;11780;13.904;100.620;2023-04-06T13:23:38;43.53;;;39.13;;
23222;SDS011;11780;13.904;100.620;2023-04-06T13:26:09;42.05;;;37.78;;
23222;SDS011;11780;13.904;100.620;2023-04-06T13:28:40;42.63;;;38.20;;
23222;SDS011;11780;13.904;100.620;2023-04-06T13:31:11;41.38;;;37.28;;
23222;SDS011;11780;13.904;100.620;2023-04-06T13:33:41;42.00;;;37.83;;
23222;SDS011;11780;13.904;100.620;2023-04-06T13:36:12;42.07;;;37.73;;
23222;SDS011;11780;13.904;100.620;2023-04-06T13:38:44;41.30;;;36.90;;
23222;SDS011;11780;13.904;100.620;2023-04-06T13:41:21;41.22;;;36.95;;
23222;SDS011;11780;13.904;100.620;2023-04-06T13:43:52;41.40;;;36.97;;
23222;SDS011;11780;13.904;100.620;2023-04-06T13:46:22;42.17;;;37.60;;
23222;SDS011;11780;13.904;100.620;2023-04-06T13:48:53;43.50;;;37.10;;
23222;SDS011;11780;13.904;100.620;2023-04-06T13:51:24;40.23;;;35.97;;
23222;SDS011;11780;13.904;100.620;2023-04-06T13:53:56;40.00;;;35.88;;
23222;SDS011;11780;13.904;100.620;2023-04-06T13:56:26;36.63;;;32.97;;
23222;SDS011;11780;13.904;100.620;2023-04-06T13:58:56;38.83;;;34.67;;
23222;SDS011;11780;13.904;100.620;2023-04-06T14:01:28;42.35;;;38.22;;
23222;SDS011;11780;13.904;100.620;2023-04-06T14:03:58;39.77;;;35.90;;
23222;SDS011;11780;13.904;100.620;2023-04-06T14:06:29;39.70;;;35.60;;
23222;SDS011;11780;13.904;100.620;2023-04-06T14:08:59;39.17;;;35.00;;
23222;SDS011;11780;13.904;100.620;2023-04-06T14:11:30;40.00;;;35.83;;
23222;SDS011;11780;13.904;100.620;2023-04-06T14:14:01;38.60;;;34.67;;
23222;SDS011;11780;13.904;100.620;2023-04-06T14:16:31;39.03;;;35.10;;
23222;SDS011;11780;13.904;100.620;2023-04-06T14:19:02;38.77;;;35.10;;
23222;SDS011;11780;13.904;100.620;2023-04-06T14:21:32;37.13;;;32.55;;
23222;SDS011;11780;13.904;100.620;2023-04-06T14:24:02;37.77;;;33.97;;
23222;SDS011;11780;13.904;100.620;2023-04-06T14:26:33;38.63;;;34.58;;
23222;SDS011;11780;13.904;100.620;2023-04-06T14:31:35;38.33;;;34.67;;
23222;SDS011;11780;13.904;100.620;2023-04-06T14:34:05;38.53;;;34.40;;
23222;SDS011;11780;13.904;100.620;2023-04-06T14:36:36;36.97;;;33.23;;
23222;SDS011;11780;13.904;100.620;2023-04-06T14:39:07;38.22;;;34.55;;
23222;SDS011;11780;13.904;100.620;2023-04-06T14:41:39;40.58;;;36.30;;
23222;SDS011;11780;13.904;100.620;2023-04-06T14:46:41;38.40;;;34.65;;
23222;SDS011;11780;13.904;100.620;2023-04-06T14:49:12;39.22;;;35.40;;
23222;SDS011;11780;13.904;100.620;2023-04-06T14:51:45;38.97;;;35.08;;
23222;SDS011;11780;13.904;100.620;2023-04-06T14:54:15;38.72;;;34.75;;
23222;SDS011;11780;13.904;100.620;2023-04-06T14:56:46;37.93;;;34.23;;
23222;SDS011;11780;13.904;100.620;2023-04-06T14:59:30;36.38;;;32.75;;
23222;SDS011;11780;13.904;100.620;2023-04-06T15:02:13;36.53;;;33.13;;
23222;SDS011;11780;13.904;100.620;2023-04-06T15:04:45;36.25;;;32.47;;
23222;SDS011;11780;13.904;100.620;2023-04-06T15:07:16;36.83;;;33.27;;
23222;SDS011;11780;13.904;100.620;2023-04-06T15:09:46;35.15;;;31.85;;
23222;SDS011;11780;13.904;100.620;2023-04-06T15:12:16;35.40;;;32.08;;
23222;SDS011;11780;13.904;100.620;2023-04-06T15:14:46;36.40;;;32.70;;
23222;SDS011;11780;13.904;100.620;2023-04-06T15:17:17;34.73;;;31.40;;
23222;SDS011;11780;13.904;100.620;2023-04-06T15:20:02;34.90;;;31.75;;
23222;SDS011;11780;13.904;100.620;2023-04-06T15:22:33;35.95;;;32.47;;
23222;SDS011;11780;13.904;100.620;2023-04-06T15:25:03;35.00;;;31.37;;
23222;SDS011;11780;13.904;100.620;2023-04-06T15:27:34;31.40;;;28.35;;
23222;SDS011;11780;13.904;100.620;2023-04-06T15:30:04;34.77;;;31.43;;
23222;SDS011;11780;13.904;100.620;2023-04-06T15:32:35;34.28;;;30.95;;
23222;SDS011;11780;13.904;100.620;2023-04-06T15:35:16;33.78;;;30.45;;
23222;SDS011;11780;13.904;100.620;2023-04-06T15:37:46;33.07;;;30.13;;
23222;SDS011;11780;13.904;100.620;2023-04-06T15:40:17;32.73;;;29.53;;
23222;SDS011;11780;13.904;100.620;2023-04-06T15:42:47;34.33;;;30.87;;
23222;SDS011;11780;13.904;100.620;2023-04-06T15:45:18;34.07;;;30.57;;
23222;SDS011;11780;13.904;100.620;2023-04-06T15:47:48;33.93;;;30.57;;
23222;SDS011;11780;13.904;100.620;2023-04-06T15:50:19;33.87;;;30.37;;
23222;SDS011;11780;13.904;100.620;2023-04-06T15:52:49;33.53;;;29.73;;
23222;SDS011;11780;13.904;100.620;2023-04-06T15:55:20;32.60;;;29.38;;
23222;SDS011;11780;13.904;100.620;2023-04-06T15:57:51;33.85;;;30.75;;
23222;SDS011;11780;13.904;100.620;2023-04-06T16:00:22;32.30;;;29.35;;
23222;SDS011;11780;13.904;100.620;2023-04-06T16:02:53;32.63;;;29.63;;
23222;SDS011;11780;13.904;100.620;2023-04-06T16:05:27;31.23;;;27.88;;
23222;SDS011;11780;13.904;100.620;2023-04-06T16:08:15;33.13;;;29.60;;
23222;SDS011;11780;13.904;100.620;2023-04-06T16:10:45;32.45;;;29.48;;
23222;SDS011;11780;13.904;100.620;2023-04-06T16:13:15;31.80;;;28.60;;
23222;SDS011;11780;13.904;100.620;2023-04-06T16:15:48;30.52;;;27.27;;
23222;SDS011;11780;13.904;100.620;2023-04-06T16:18:20;32.22;;;29.13;;
23222;SDS011;11780;13.904;100.620;2023-04-06T16:20:50;32.83;;;29.63;;
23222;SDS011;11780;13.904;100.620;2023-04-06T16:23:21;34.03;;;29.80;;
23222;SDS011;11780;13.904;100.620;2023-04-06T16:25:52;33.22;;;29.75;;
23222;SDS011;11780;13.904;100.620;2023-04-06T16:28:26;34.83;;;30.85;;
23222;SDS011;11780;13.904;100.620;2023-04-06T16:30:56;32.90;;;29.33;;
23222;SDS011;11780;13.904;100.620;2023-04-06T16:33:26;30.92;;;27.85;;
23222;SDS011;11780;13.904;100.620;2023-04-06T16:35:56;31.15;;;28.20;;
23222;SDS011;11780;13.904;100.620;2023-04-06T16:38:27;34.10;;;30.60;;
23222;SDS011;11780;13.904;100.620;2023-04-06T16:41:03;33.30;;;30.20;;
23222;SDS011;11780;13.904;100.620;2023-04-06T16:43:34;32.78;;;29.52;;
23222;SDS011;11780;13.904;100.620;2023-04-06T16:46:04;33.10;;;29.60;;
23222;SDS011;11780;13.904;100.620;2023-04-06T16:48:35;32.78;;;29.67;;
23222;SDS011;11780;13.904;100.620;2023-04-06T16:51:06;33.35;;;29.88;;
23222;SDS011;11780;13.904;100.620;2023-04-06T16:56:07;32.40;;;29.30;;
23222;SDS011;11780;13.904;100.620;2023-04-06T16:58:37;34.17;;;30.83;;
23222;SDS011;11780;13.904;100.620;2023-04-06T17:01:08;34.20;;;30.52;;
23222;SDS011;11780;13.904;100.620;2023-04-06T17:04:00;32.50;;;29.58;;
23222;SDS011;11780;13.904;100.620;2023-04-06T17:06:30;33.10;;;29.70;;
23222;SDS011;11780;13.904;100.620;2023-04-06T17:09:01;32.35;;;29.23;;
23222;SDS011;11780;13.904;100.620;2023-04-06T17:11:31;31.33;;;28.20;;
23222;SDS011;11780;13.904;100.620;2023-04-06T17:14:13;30.95;;;27.98;;
23222;SDS011;11780;13.904;100.620;2023-04-06T17:16:46;31.70;;;28.67;;
23222;SDS011;11780;13.904;100.620;2023-04-06T17:19:21;33.15;;;29.27;;
23222;SDS011;11780;13.904;100.620;2023-04-06T22:36:00;33.17;;;29.35;;
23222;SDS011;11780;13.904;100.620;2023-04-06T22:38:32;31.00;;;27.73;;
23222;SDS011;11780;13.904;100.620;2023-04-06T22:41:02;31.57;;;28.27;;
23222;SDS011;11780;13.904;100.620;2023-04-06T22:43:34;32.95;;;28.95;;